createdAt,value
2019-02-19T00:00:05.499Z,1006.04
2019-02-19T00:01:05.162Z,1006.06
2019-02-19T00:02:05.140Z,1006.04
2019-02-19T00:03:05.175Z,1006.05
2019-02-19T00:04:05.166Z,1006.07
2019-02-19T00:05:05.181Z,1006.07
2019-02-19T00:06:05.046Z,1006.06
2019-02-19T00:07:05.336Z,1006.10
2019-02-19T00:08:05.014Z,1006.02
2019-02-19T00:09:05.580Z,1006.00
2019-02-19T00:10:05.227Z,1006.01
2019-02-19T00:11:04.938Z,1006.01
2019-02-19T00:12:04.918Z,1005.97
2019-02-19T00:13:04.893Z,1005.94
2019-02-19T00:14:05.217Z,1006.00
2019-02-19T00:15:08.313Z,1005.89
2019-02-19T00:16:04.821Z,1005.88
2019-02-19T00:17:04.799Z,1005.97
2019-02-19T00:18:04.775Z,1005.97
2019-02-19T00:19:04.758Z,1006.03
2019-02-19T00:20:04.747Z,1005.97
2019-02-19T00:21:05.008Z,1006.05
2019-02-19T00:22:04.688Z,1006.02
2019-02-19T00:23:06.185Z,1006.04
2019-02-19T00:24:04.643Z,1006.08
2019-02-19T00:25:04.662Z,1006.12
2019-02-19T00:26:04.608Z,1006.06
2019-02-19T00:27:04.580Z,1006.10
2019-02-19T00:28:04.850Z,1006.09
2019-02-19T00:29:05.032Z,1006.02
2019-02-19T00:30:04.547Z,1006.04
2019-02-19T00:31:04.487Z,1006.01
2019-02-19T00:32:04.460Z,1006.02
2019-02-19T00:33:04.448Z,1006.02
2019-02-19T00:34:04.430Z,1006.04
2019-02-19T00:35:04.903Z,1005.97
2019-02-19T00:36:04.954Z,1006.01
2019-02-19T00:37:04.344Z,1005.97
2019-02-19T00:39:04.300Z,1006.00
2019-02-19T00:40:04.293Z,1006.03
2019-02-19T00:41:04.377Z,1005.99
2019-02-19T00:42:04.626Z,1005.99
2019-02-19T00:43:04.212Z,1006.00
2019-02-19T00:44:04.199Z,1005.97
2019-02-19T00:45:04.176Z,1005.99
2019-02-19T00:46:04.146Z,1005.99
2019-02-19T00:47:04.140Z,1005.94
2019-02-19T00:48:04.669Z,1005.98
2019-02-19T00:49:04.190Z,1005.99
2019-02-19T00:50:04.051Z,1005.95
2019-02-19T00:51:04.255Z,1005.95
2019-02-19T00:52:04.144Z,1005.98
2019-02-19T00:53:03.993Z,1005.99
2019-02-19T00:54:04.269Z,1005.99
2019-02-19T00:55:04.511Z,1005.94
2019-02-19T00:56:03.921Z,1005.99
2019-02-19T00:57:03.932Z,1005.92
2019-02-19T00:58:03.872Z,1005.92
2019-02-19T00:59:03.968Z,1005.92
2019-02-19T01:00:04.386Z,1005.91
2019-02-19T01:01:04.039Z,1005.88
2019-02-19T01:03:03.791Z,1005.93
2019-02-19T01:04:03.842Z,1005.87
2019-02-19T01:05:03.713Z,1005.89
2019-02-19T01:07:04.092Z,1005.87
2019-02-19T01:08:03.658Z,1005.88
2019-02-19T01:09:04.532Z,1005.96
2019-02-19T01:10:04.019Z,1005.97
2019-02-19T01:11:03.712Z,1005.94
2019-02-19T01:12:03.988Z,1005.93
2019-02-19T01:13:03.849Z,1005.92
2019-02-19T01:14:03.784Z,1005.89
2019-02-19T01:16:03.559Z,1005.93
2019-02-19T01:17:03.470Z,1005.91
2019-02-19T01:18:04.635Z,1005.96
2019-02-19T01:19:03.848Z,1005.95
2019-02-19T01:20:03.462Z,1005.89
2019-02-19T01:21:03.489Z,1005.88
2019-02-19T01:22:03.475Z,1005.86
2019-02-19T01:23:03.365Z,1005.90
2019-02-19T01:24:03.283Z,1005.96
2019-02-19T01:25:03.576Z,1005.93
2019-02-19T01:26:03.307Z,1005.93
2019-02-19T01:27:03.301Z,1005.95
2019-02-19T01:28:03.198Z,1005.93
2019-02-19T01:29:03.410Z,1005.93
2019-02-19T01:30:03.299Z,1005.89
2019-02-19T01:31:03.296Z,1005.89
2019-02-19T01:32:03.446Z,1005.87
2019-02-19T01:33:03.501Z,1005.86
2019-02-19T01:34:03.064Z,1005.87
2019-02-19T01:35:03.030Z,1005.86
2019-02-19T01:36:03.143Z,1005.86
2019-02-19T01:37:02.985Z,1005.83
2019-02-19T01:38:02.969Z,1005.85
2019-02-19T01:39:03.252Z,1005.83
2019-02-19T01:40:03.530Z,1005.84
2019-02-19T01:41:03.009Z,1005.82
2019-02-19T01:42:02.870Z,1005.78
2019-02-19T01:43:02.874Z,1005.79
2019-02-19T01:44:02.950Z,1005.73
2019-02-19T01:45:03.317Z,1005.74
2019-02-19T01:46:03.086Z,1005.75
2019-02-19T01:47:02.755Z,1005.72
2019-02-19T01:48:02.734Z,1005.75
2019-02-19T01:49:02.711Z,1005.73
2019-02-19T01:50:02.680Z,1005.73
2019-02-19T01:51:02.654Z,1005.71
2019-02-19T01:52:02.629Z,1005.71
2019-02-19T01:53:02.914Z,1005.72
2019-02-19T01:54:02.587Z,1005.65
2019-02-19T01:55:02.585Z,1005.66
2019-02-19T01:56:02.659Z,1005.65
2019-02-19T01:57:02.593Z,1005.65
2019-02-19T01:58:02.543Z,1005.64
2019-02-19T01:59:02.587Z,1005.61
2019-02-19T02:00:03.023Z,1005.66
2019-02-19T02:01:02.534Z,1005.64
2019-02-19T02:02:02.566Z,1005.64
2019-02-19T02:03:02.879Z,1005.57
2019-02-19T02:04:02.421Z,1005.54
2019-02-19T02:05:02.481Z,1005.54
2019-02-19T02:06:02.404Z,1005.54
2019-02-19T02:07:04.428Z,1005.56
2019-02-19T02:08:02.410Z,1005.57
2019-02-19T02:09:02.353Z,1005.58
2019-02-19T02:10:02.355Z,1005.63
2019-02-19T02:11:02.648Z,1005.61
2019-02-19T02:12:02.180Z,1005.60
2019-02-19T02:13:02.443Z,1005.53
2019-02-19T02:14:02.118Z,1005.52
2019-02-19T02:15:02.108Z,1005.54
2019-02-19T02:16:02.153Z,1005.63
2019-02-19T02:17:02.126Z,1005.61
2019-02-19T02:18:02.061Z,1005.61
2019-02-19T02:19:02.431Z,1005.63
2019-02-19T02:20:01.968Z,1005.65
2019-02-19T02:21:01.942Z,1005.64
2019-02-19T02:22:01.926Z,1005.66
2019-02-19T02:23:01.895Z,1005.64
2019-02-19T02:24:01.878Z,1005.59
2019-02-19T02:25:02.185Z,1005.64
2019-02-19T02:26:01.823Z,1005.58
2019-02-19T02:27:01.804Z,1005.56
2019-02-19T02:29:01.754Z,1005.57
2019-02-19T02:30:01.871Z,1005.53
2019-02-19T02:31:02.036Z,1005.50
2019-02-19T02:32:01.707Z,1005.54
2019-02-19T02:33:01.673Z,1005.56
2019-02-19T02:34:01.640Z,1005.52
2019-02-19T02:35:01.615Z,1005.55
2019-02-19T02:36:01.599Z,1005.54
2019-02-19T02:38:01.552Z,1005.55
2019-02-19T02:39:01.517Z,1005.58
2019-02-19T02:40:01.511Z,1005.54
2019-02-19T02:41:01.497Z,1005.54
2019-02-19T02:42:01.465Z,1005.53
2019-02-19T02:43:01.728Z,1005.49
2019-02-19T02:45:02.897Z,1005.47
2019-02-19T02:46:01.359Z,1005.48
2019-02-19T02:47:01.603Z,1005.50
2019-02-19T02:48:01.310Z,1005.42
2019-02-19T02:49:01.603Z,1005.47
2019-02-19T02:50:01.294Z,1005.39
2019-02-19T02:51:01.267Z,1005.35
2019-02-19T02:52:01.214Z,1005.39
2019-02-19T02:53:01.241Z,1005.33
2019-02-19T02:55:01.154Z,1005.32
2019-02-19T02:56:01.440Z,1005.33
2019-02-19T02:57:01.092Z,1005.34
2019-02-19T02:58:01.075Z,1005.31
2019-02-19T02:59:01.053Z,1005.30
2019-02-19T03:00:01.039Z,1005.30
2019-02-19T03:01:01.011Z,1005.33
2019-02-19T03:02:00.986Z,1005.32
2019-02-19T03:03:01.221Z,1005.30
2019-02-19T03:04:00.939Z,1005.41
2019-02-19T03:05:00.975Z,1005.34
2019-02-19T03:06:00.985Z,1005.38
2019-02-19T03:07:00.978Z,1005.35
2019-02-19T03:08:01.082Z,1005.36
2019-02-19T03:09:00.936Z,1005.33
2019-02-19T03:10:01.162Z,1005.29
2019-02-19T03:11:00.910Z,1005.34
2019-02-19T03:12:00.841Z,1005.33
2019-02-19T03:13:00.816Z,1005.30
2019-02-19T03:15:00.865Z,1005.32
2019-02-19T03:16:02.672Z,1005.37
2019-02-19T03:17:00.989Z,1005.35
2019-02-19T03:18:00.615Z,1005.34
2019-02-19T03:19:00.588Z,1005.40
2019-02-19T03:20:00.565Z,1005.39
2019-02-19T03:21:00.540Z,1005.41
2019-02-19T03:22:00.503Z,1005.35
2019-02-19T03:23:00.510Z,1005.34
2019-02-19T03:24:00.770Z,1005.32
2019-02-19T03:25:00.437Z,1005.35
2019-02-19T03:26:00.413Z,1005.31
2019-02-19T03:27:00.398Z,1005.29
2019-02-19T03:28:00.388Z,1005.32
2019-02-19T03:29:00.353Z,1005.28
2019-02-19T03:30:00.338Z,1005.32
2019-02-19T03:31:00.573Z,1005.32
2019-02-19T03:32:00.276Z,1005.33
2019-02-19T03:33:00.250Z,1005.33
2019-02-19T03:34:00.335Z,1005.35
2019-02-19T03:35:00.466Z,1005.32
2019-02-19T03:36:00.190Z,1005.32
2019-02-19T03:37:00.469Z,1005.29
2019-02-19T03:38:00.233Z,1005.33
2019-02-19T03:39:00.115Z,1005.37
2019-02-19T03:40:00.182Z,1005.35
2019-02-19T03:41:00.074Z,1005.33
2019-02-19T03:42:00.037Z,1005.33
2019-02-19T03:43:00.264Z,1005.34
2019-02-19T03:44:00.075Z,1005.35
2019-02-19T03:44:59.995Z,1005.34
2019-02-19T03:45:59.949Z,1005.37
2019-02-19T03:46:59.968Z,1005.37
2019-02-19T03:47:59.972Z,1005.31
2019-02-19T03:49:00.169Z,1005.33
2019-02-19T03:49:59.845Z,1005.40
2019-02-19T03:50:59.820Z,1005.32
2019-02-19T03:51:59.798Z,1005.36
2019-02-19T03:52:59.799Z,1005.33
2019-02-19T03:53:59.774Z,1005.37
2019-02-19T03:55:00.052Z,1005.29
2019-02-19T03:55:59.721Z,1005.32
2019-02-19T03:56:59.680Z,1005.35
2019-02-19T03:57:59.656Z,1005.40
2019-02-19T03:58:59.637Z,1005.29
2019-02-19T03:59:59.611Z,1005.31
2019-02-19T04:00:59.891Z,1005.30
2019-02-19T04:01:59.865Z,1005.28
2019-02-19T04:02:59.551Z,1005.25
2019-02-19T04:03:59.532Z,1005.34
2019-02-19T04:04:59.496Z,1005.32
2019-02-19T04:05:59.480Z,1005.35
2019-02-19T04:06:59.762Z,1005.32
2019-02-19T04:07:59.427Z,1005.32
2019-02-19T04:08:59.414Z,1005.33
2019-02-19T04:09:59.386Z,1005.37
2019-02-19T04:10:59.373Z,1005.43
2019-02-19T04:11:59.339Z,1005.40
2019-02-19T04:12:59.649Z,1005.40
2019-02-19T04:14:59.266Z,1005.43
2019-02-19T04:15:59.239Z,1005.46
2019-02-19T04:16:59.451Z,1005.48
2019-02-19T04:17:59.193Z,1005.48
2019-02-19T04:18:59.177Z,1005.51
2019-02-19T04:19:59.448Z,1005.58
2019-02-19T04:20:59.118Z,1005.44
2019-02-19T04:21:59.096Z,1005.49
2019-02-19T04:22:59.071Z,1005.46
2019-02-19T04:23:59.056Z,1005.39
2019-02-19T04:24:59.030Z,1005.42
2019-02-19T04:25:59.013Z,1005.41
2019-02-19T04:26:59.284Z,1005.43
2019-02-19T04:27:58.963Z,1005.43
2019-02-19T04:28:58.948Z,1005.41
2019-02-19T04:29:58.914Z,1005.40
2019-02-19T04:30:58.898Z,1005.40
2019-02-19T04:31:58.878Z,1005.42
2019-02-19T04:32:58.850Z,1005.51
2019-02-19T04:33:59.125Z,1005.40
2019-02-19T04:34:58.979Z,1005.44
2019-02-19T04:35:58.907Z,1005.47
2019-02-19T04:36:58.856Z,1005.51
2019-02-19T04:37:58.739Z,1005.53
2019-02-19T04:38:58.814Z,1005.42
2019-02-19T04:39:58.688Z,1005.43
2019-02-19T04:40:58.908Z,1005.45
2019-02-19T04:41:58.654Z,1005.44
2019-02-19T04:42:58.647Z,1005.34
2019-02-19T04:43:58.630Z,1005.34
2019-02-19T04:44:58.597Z,1005.35
2019-02-19T04:45:58.623Z,1005.39
2019-02-19T04:46:58.528Z,1005.36
2019-02-19T04:47:58.815Z,1005.37
2019-02-19T04:48:58.497Z,1005.38
2019-02-19T04:49:58.455Z,1005.38
2019-02-19T04:50:58.673Z,1005.46
2019-02-19T04:51:59.117Z,1005.39
2019-02-19T04:52:58.493Z,1005.48
2019-02-19T04:53:58.367Z,1005.45
2019-02-19T04:54:58.653Z,1005.49
2019-02-19T04:55:58.559Z,1005.55
2019-02-19T04:56:58.293Z,1005.44
2019-02-19T04:57:58.385Z,1005.46
2019-02-19T04:58:58.300Z,1005.44
2019-02-19T04:59:58.232Z,1005.43
2019-02-19T05:00:58.462Z,1005.43
2019-02-19T05:01:59.696Z,1005.45
2019-02-19T05:02:58.208Z,1005.45
2019-02-19T05:03:58.139Z,1005.48
2019-02-19T05:04:58.112Z,1005.43
2019-02-19T05:05:58.103Z,1005.52
2019-02-19T05:06:58.324Z,1005.50
2019-02-19T05:07:58.037Z,1005.52
2019-02-19T05:08:58.070Z,1005.52
2019-02-19T05:09:58.090Z,1005.55
2019-02-19T05:10:57.967Z,1005.56
2019-02-19T05:11:57.952Z,1005.52
2019-02-19T05:12:58.225Z,1005.58
2019-02-19T05:13:57.898Z,1005.54
2019-02-19T05:14:57.882Z,1005.51
2019-02-19T05:15:57.858Z,1005.57
2019-02-19T05:17:57.806Z,1005.58
2019-02-19T05:18:58.086Z,1005.64
2019-02-19T05:19:57.763Z,1005.64
2019-02-19T05:20:57.759Z,1005.63
2019-02-19T05:21:57.719Z,1005.63
2019-02-19T05:22:57.695Z,1005.62
2019-02-19T05:23:57.700Z,1005.63
2019-02-19T05:24:57.972Z,1005.56
2019-02-19T05:25:57.893Z,1005.51
2019-02-19T05:26:57.901Z,1005.59
2019-02-19T05:27:57.607Z,1005.54
2019-02-19T05:28:58.264Z,1005.52
2019-02-19T05:29:57.552Z,1005.53
2019-02-19T05:30:57.899Z,1005.52
2019-02-19T05:31:57.496Z,1005.57
2019-02-19T05:32:57.466Z,1005.59
2019-02-19T05:33:57.444Z,1005.61
2019-02-19T05:34:57.460Z,1005.65
2019-02-19T05:35:57.402Z,1005.65
2019-02-19T05:36:57.628Z,1005.66
2019-02-19T05:37:57.349Z,1005.70
2019-02-19T05:38:57.339Z,1005.68
2019-02-19T05:39:57.316Z,1005.64
2019-02-19T05:40:57.290Z,1005.64
2019-02-19T05:41:57.282Z,1005.75
2019-02-19T05:42:57.690Z,1005.70
2019-02-19T05:43:57.513Z,1005.72
2019-02-19T05:44:57.404Z,1005.72
2019-02-19T05:45:57.177Z,1005.76
2019-02-19T05:46:57.153Z,1005.78
2019-02-19T05:47:57.173Z,1005.90
2019-02-19T05:48:57.102Z,1005.90
2019-02-19T05:49:57.503Z,1005.91
2019-02-19T05:50:57.060Z,1006.01
2019-02-19T05:51:57.084Z,1005.92
2019-02-19T05:52:57.360Z,1005.95
2019-02-19T05:54:57.093Z,1006.00
2019-02-19T05:55:57.278Z,1005.98
2019-02-19T05:56:57.214Z,1005.97
2019-02-19T05:58:01.433Z,1005.96
2019-02-19T05:58:58.052Z,1005.94
2019-02-19T05:59:58.493Z,1005.98
2019-02-19T06:00:57.203Z,1005.97
2019-02-19T06:01:58.435Z,1005.95
2019-02-19T06:02:57.419Z,1005.95
2019-02-19T06:03:56.903Z,1006.00
2019-02-19T06:04:56.762Z,1006.08
2019-02-19T06:05:56.761Z,1006.04
2019-02-19T06:06:56.762Z,1006.12
2019-02-19T06:07:56.674Z,1006.09
2019-02-19T06:08:56.652Z,1006.08
2019-02-19T06:09:56.889Z,1006.04
2019-02-19T06:10:56.699Z,1006.14
2019-02-19T06:11:56.599Z,1006.17
2019-02-19T06:12:56.551Z,1006.12
2019-02-19T06:13:56.533Z,1006.12
2019-02-19T06:14:56.525Z,1006.17
2019-02-19T06:15:56.491Z,1006.19
2019-02-19T06:16:58.755Z,1006.18
2019-02-19T06:18:56.432Z,1006.23
2019-02-19T06:21:56.365Z,1006.34
2019-02-19T06:22:56.896Z,1006.33
2019-02-19T06:23:56.316Z,1006.37
2019-02-19T06:24:56.299Z,1006.46
2019-02-19T06:25:56.273Z,1006.39
2019-02-19T06:26:56.250Z,1006.39
2019-02-19T06:27:56.221Z,1006.44
2019-02-19T06:28:57.994Z,1006.43
2019-02-19T06:29:56.179Z,1006.38
2019-02-19T06:30:56.180Z,1006.42
2019-02-19T06:31:56.168Z,1006.43
2019-02-19T06:32:57.168Z,1006.48
2019-02-19T06:33:56.102Z,1006.52
2019-02-19T06:34:56.367Z,1006.51
2019-02-19T06:35:56.035Z,1006.50
2019-02-19T06:36:56.974Z,1006.49
2019-02-19T06:37:55.977Z,1006.54
2019-02-19T06:38:55.950Z,1006.54
2019-02-19T06:39:55.948Z,1006.59
2019-02-19T06:40:56.019Z,1006.52
2019-02-19T06:41:56.182Z,1006.55
2019-02-19T06:42:55.864Z,1006.60
2019-02-19T06:43:55.851Z,1006.44
2019-02-19T06:44:55.815Z,1006.54
2019-02-19T06:45:56.136Z,1006.53
2019-02-19T06:46:55.774Z,1006.60
2019-02-19T06:47:56.081Z,1006.60
2019-02-19T06:48:55.723Z,1006.57
2019-02-19T06:49:55.719Z,1006.55
2019-02-19T06:50:55.670Z,1006.53
2019-02-19T06:51:55.659Z,1006.59
2019-02-19T06:52:55.716Z,1006.58
2019-02-19T06:53:55.902Z,1006.62
2019-02-19T06:54:55.578Z,1006.66
2019-02-19T06:55:55.700Z,1006.69
2019-02-19T06:56:55.532Z,1006.72
2019-02-19T06:58:55.559Z,1006.80
2019-02-19T06:59:56.164Z,1006.76
2019-02-19T07:00:55.566Z,1006.73
2019-02-19T07:01:55.421Z,1006.70
2019-02-19T07:02:55.480Z,1006.73
2019-02-19T07:03:55.385Z,1006.72
2019-02-19T07:05:55.631Z,1006.73
2019-02-19T07:06:55.520Z,1006.80
2019-02-19T07:07:55.305Z,1006.87
2019-02-19T07:08:55.296Z,1006.80
2019-02-19T07:09:55.245Z,1006.77
2019-02-19T07:10:55.228Z,1006.77
2019-02-19T07:11:55.190Z,1006.80
2019-02-19T07:12:55.936Z,1006.85
2019-02-19T07:13:55.576Z,1006.80
2019-02-19T07:14:55.135Z,1006.80
2019-02-19T07:15:55.404Z,1006.85
2019-02-19T07:16:55.380Z,1006.88
2019-02-19T07:17:55.080Z,1006.86
2019-02-19T07:18:55.550Z,1006.90
2019-02-19T07:19:54.998Z,1006.91
2019-02-19T07:20:55.455Z,1006.91
2019-02-19T07:21:55.640Z,1006.90
2019-02-19T07:22:55.093Z,1006.85
2019-02-19T07:24:04.225Z,1006.83
2019-02-19T07:24:55.546Z,1006.85
2019-02-19T07:25:55.420Z,1006.86
2019-02-19T07:26:55.120Z,1006.86
2019-02-19T07:27:55.213Z,1006.87
2019-02-19T07:28:54.792Z,1006.88
2019-02-19T07:29:55.166Z,1006.92
2019-02-19T07:30:55.456Z,1006.96
2019-02-19T07:31:54.724Z,1006.89
2019-02-19T07:32:54.756Z,1006.91
2019-02-19T07:33:54.675Z,1006.88
2019-02-19T07:34:54.674Z,1006.89
2019-02-19T07:35:54.746Z,1006.94
2019-02-19T07:36:54.616Z,1006.97
2019-02-19T07:37:54.876Z,1006.98
2019-02-19T07:38:54.586Z,1006.98
2019-02-19T07:39:54.542Z,1006.98
2019-02-19T07:40:54.545Z,1007.05
2019-02-19T07:41:54.546Z,1007.04
2019-02-19T07:42:54.522Z,1007.01
2019-02-19T07:43:54.750Z,1007.04
2019-02-19T07:44:54.599Z,1007.00
2019-02-19T07:45:54.469Z,1007.05
2019-02-19T07:46:54.408Z,1006.98
2019-02-19T07:47:54.365Z,1007.03
2019-02-19T07:48:54.340Z,1007.01
2019-02-19T07:49:54.614Z,1007.00
2019-02-19T07:50:54.311Z,1007.02
2019-02-19T07:51:54.272Z,1007.05
2019-02-19T07:52:54.294Z,1007.07
2019-02-19T07:53:54.231Z,1007.08
2019-02-19T07:54:54.197Z,1007.10
2019-02-19T07:55:54.500Z,1007.10
2019-02-19T07:56:54.183Z,1007.13
2019-02-19T07:57:54.137Z,1007.09
2019-02-19T07:58:54.111Z,1007.16
2019-02-19T07:59:54.151Z,1007.12
2019-02-19T08:00:54.081Z,1007.20
2019-02-19T08:01:54.396Z,1007.22
2019-02-19T08:02:54.080Z,1007.23
2019-02-19T08:03:54.019Z,1007.15
2019-02-19T08:04:53.990Z,1007.21
2019-02-19T08:05:53.953Z,1007.23
2019-02-19T08:06:53.967Z,1007.27
2019-02-19T08:07:54.228Z,1007.22
2019-02-19T08:08:53.883Z,1007.24
2019-02-19T08:09:53.904Z,1007.26
2019-02-19T08:10:53.850Z,1007.23
2019-02-19T08:11:53.815Z,1007.25
2019-02-19T08:12:53.794Z,1007.24
2019-02-19T08:13:54.088Z,1007.30
2019-02-19T08:14:53.759Z,1007.35
2019-02-19T08:15:54.178Z,1007.29
2019-02-19T08:16:53.703Z,1007.27
2019-02-19T08:17:53.911Z,1007.31
2019-02-19T08:18:53.724Z,1007.35
2019-02-19T08:19:53.936Z,1007.31
2019-02-19T08:20:53.632Z,1007.32
2019-02-19T08:21:53.670Z,1007.33
2019-02-19T08:22:53.575Z,1007.33
2019-02-19T08:23:53.554Z,1007.37
2019-02-19T08:24:53.525Z,1007.41
2019-02-19T08:25:53.836Z,1007.41
2019-02-19T08:26:53.482Z,1007.36
2019-02-19T08:27:53.490Z,1007.42
2019-02-19T08:28:53.455Z,1007.41
2019-02-19T08:29:53.422Z,1007.40
2019-02-19T08:30:53.392Z,1007.38
2019-02-19T08:31:53.684Z,1007.44
2019-02-19T08:32:53.347Z,1007.47
2019-02-19T08:33:53.334Z,1007.45
2019-02-19T08:34:53.362Z,1007.45
2019-02-19T08:35:53.621Z,1007.44
2019-02-19T08:36:53.260Z,1007.53
2019-02-19T08:37:53.543Z,1007.58
2019-02-19T08:38:53.209Z,1007.61
2019-02-19T08:39:53.195Z,1007.49
2019-02-19T08:40:53.174Z,1007.55
2019-02-19T08:41:54.669Z,1007.55
2019-02-19T08:42:53.234Z,1007.60
2019-02-19T08:43:53.370Z,1007.58
2019-02-19T08:44:53.077Z,1007.57
2019-02-19T08:45:53.050Z,1007.60
2019-02-19T08:46:53.040Z,1007.57
2019-02-19T08:47:53.018Z,1007.63
2019-02-19T08:48:52.983Z,1007.62
2019-02-19T08:49:53.284Z,1007.67
2019-02-19T08:50:52.940Z,1007.70
2019-02-19T08:51:56.130Z,1007.63
2019-02-19T08:52:52.927Z,1007.75
2019-02-19T08:53:52.881Z,1007.71
2019-02-19T08:54:52.858Z,1007.74
2019-02-19T08:55:53.134Z,1007.74
2019-02-19T08:56:52.853Z,1007.77
2019-02-19T08:57:54.229Z,1007.78
2019-02-19T08:58:52.761Z,1007.76
2019-02-19T08:59:52.738Z,1007.77
2019-02-19T09:00:52.721Z,1007.99
2019-02-19T09:01:52.972Z,1008.04
2019-02-19T09:02:52.677Z,1007.98
2019-02-19T09:03:52.652Z,1007.96
2019-02-19T09:04:52.639Z,1007.82
2019-02-19T09:05:52.610Z,1007.84
2019-02-19T09:06:52.589Z,1007.73
2019-02-19T09:07:52.861Z,1007.87
2019-02-19T09:08:52.564Z,1007.79
2019-02-19T09:09:52.910Z,1007.86
2019-02-19T09:10:52.601Z,1007.76
2019-02-19T09:11:52.485Z,1007.84
2019-02-19T09:12:52.453Z,1007.84
2019-02-19T09:13:52.685Z,1007.78
2019-02-19T09:14:52.415Z,1007.90
2019-02-19T09:15:52.394Z,1007.85
2019-02-19T09:16:52.462Z,1007.85
2019-02-19T09:17:52.479Z,1007.91
2019-02-19T09:18:52.485Z,1007.90
2019-02-19T09:19:52.638Z,1007.91
2019-02-19T09:20:52.491Z,1007.95
2019-02-19T09:21:52.441Z,1007.81
2019-02-19T09:23:52.284Z,1007.79
2019-02-19T09:24:52.221Z,1007.95
2019-02-19T09:25:52.437Z,1007.92
2019-02-19T09:26:52.269Z,1007.96
2019-02-19T09:27:52.167Z,1007.96
2019-02-19T09:28:52.175Z,1007.97
2019-02-19T09:29:52.089Z,1007.92
2019-02-19T09:30:52.108Z,1007.93
2019-02-19T09:31:52.461Z,1007.87
2019-02-19T09:32:52.077Z,1007.84
2019-02-19T09:33:52.135Z,1007.86
2019-02-19T09:34:52.712Z,1007.90
2019-02-19T09:35:51.964Z,1007.93
2019-02-19T09:36:51.947Z,1007.86
2019-02-19T09:37:52.223Z,1007.85
2019-02-19T09:38:51.913Z,1007.85
2019-02-19T09:39:51.899Z,1007.82
2019-02-19T09:40:51.882Z,1007.89
2019-02-19T09:41:51.866Z,1007.74
2019-02-19T09:42:52.009Z,1007.96
2019-02-19T09:43:52.122Z,1007.86
2019-02-19T09:44:51.763Z,1007.90
2019-02-19T09:45:51.768Z,1007.79
2019-02-19T09:46:51.722Z,1007.96
2019-02-19T09:48:00.763Z,1007.92
2019-02-19T09:48:51.680Z,1007.93
2019-02-19T09:49:52.257Z,1007.89
2019-02-19T09:50:51.638Z,1008.13
2019-02-19T09:51:51.664Z,1007.90
2019-02-19T09:53:51.587Z,1008.08
2019-02-19T09:54:51.563Z,1007.88
2019-02-19T09:55:51.840Z,1008.10
2019-02-19T09:56:51.573Z,1007.86
2019-02-19T09:57:51.499Z,1007.87
2019-02-19T09:58:51.481Z,1007.75
2019-02-19T09:59:51.555Z,1007.86
2019-02-19T10:00:51.439Z,1007.85
2019-02-19T10:01:51.718Z,1007.93
2019-02-19T10:02:51.706Z,1007.93
2019-02-19T10:03:51.396Z,1007.98
2019-02-19T10:04:51.364Z,1007.86
2019-02-19T10:05:51.336Z,1007.95
2019-02-19T10:06:51.335Z,1008.09
2019-02-19T10:07:51.597Z,1007.90
2019-02-19T10:08:51.292Z,1008.10
2019-02-19T10:09:51.273Z,1008.15
2019-02-19T10:11:51.206Z,1007.95
2019-02-19T10:12:51.202Z,1008.10
2019-02-19T10:13:51.471Z,1007.95
2019-02-19T10:14:51.312Z,1008.13
2019-02-19T10:15:51.176Z,1007.98
2019-02-19T10:16:51.119Z,1007.94
2019-02-19T10:17:51.127Z,1007.98
2019-02-19T10:18:51.418Z,1007.93
2019-02-19T10:20:51.921Z,1008.06
2019-02-19T10:21:51.150Z,1008.04
2019-02-19T10:22:51.147Z,1008.25
2019-02-19T10:23:51.114Z,1008.14
2019-02-19T10:24:52.413Z,1008.11
2019-02-19T10:25:50.981Z,1009.07
2019-02-19T10:27:51.192Z,1008.03
2019-02-19T10:28:50.904Z,1008.20
2019-02-19T10:29:50.897Z,1008.15
2019-02-19T10:30:50.809Z,1008.28
2019-02-19T10:31:51.872Z,1009.07
2019-02-19T10:32:50.893Z,1009.25
2019-02-19T10:33:51.049Z,1009.10
2019-02-19T10:34:50.730Z,1008.27
2019-02-19T10:35:50.720Z,1009.01
2019-02-19T10:36:50.699Z,1009.18
2019-02-19T10:37:51.808Z,1009.17
2019-02-19T10:38:50.662Z,1008.75
2019-02-19T10:39:50.894Z,1008.28
2019-02-19T10:40:50.697Z,1008.39
2019-02-19T10:41:50.595Z,1008.22
2019-02-19T10:42:50.633Z,1008.22
2019-02-19T10:44:51.360Z,1008.32
2019-02-19T10:45:50.834Z,1008.09
2019-02-19T10:46:50.526Z,1008.08
2019-02-19T10:47:50.610Z,1008.32
2019-02-19T10:48:50.499Z,1008.20
2019-02-19T10:49:50.459Z,1008.20
2019-02-19T10:50:50.593Z,1008.18
2019-02-19T10:51:50.721Z,1008.16
2019-02-19T10:52:51.721Z,1008.92
2019-02-19T10:53:50.380Z,1008.89
2019-02-19T10:54:51.216Z,1008.51
2019-02-19T10:55:50.348Z,1009.21
2019-02-19T10:57:50.570Z,1008.71
2019-02-19T10:58:50.294Z,1008.16
2019-02-19T10:59:50.282Z,1008.89
2019-02-19T11:00:50.287Z,1008.07
2019-02-19T11:01:50.237Z,1008.89
2019-02-19T11:02:50.215Z,1009.13
2019-02-19T11:03:50.603Z,1009.09
2019-02-19T11:04:50.315Z,1009.16
2019-02-19T11:05:50.195Z,1008.86
2019-02-19T11:06:50.178Z,1008.84
2019-02-19T11:07:50.175Z,1008.72
2019-02-19T11:08:50.121Z,1008.72
2019-02-19T11:09:50.370Z,1008.67
2019-02-19T11:10:50.879Z,1008.77
2019-02-19T11:11:50.135Z,1008.16
2019-02-19T11:12:50.057Z,1008.04
2019-02-19T11:13:50.026Z,1008.26
2019-02-19T11:14:50.013Z,1008.61
2019-02-19T11:15:50.289Z,1008.03
2019-02-19T11:16:49.973Z,1008.06
2019-02-19T11:17:49.972Z,1008.29
2019-02-19T11:18:49.954Z,1008.31
2019-02-19T11:19:49.927Z,1008.62
2019-02-19T11:20:49.967Z,1008.12
2019-02-19T11:21:50.198Z,1008.09
2019-02-19T11:22:49.961Z,1008.68
2019-02-19T11:23:49.944Z,1008.13
2019-02-19T11:24:50.112Z,1008.08
2019-02-19T11:25:49.949Z,1007.98
2019-02-19T11:26:50.110Z,1007.91
2019-02-19T11:27:50.140Z,1007.93
2019-02-19T11:28:50.177Z,1007.90
2019-02-19T11:30:49.737Z,1008.03
2019-02-19T11:31:49.727Z,1008.61
2019-02-19T11:33:49.926Z,1007.90
2019-02-19T11:34:49.821Z,1008.07
2019-02-19T11:35:49.645Z,1007.95
2019-02-19T11:36:49.622Z,1008.44
2019-02-19T11:37:49.633Z,1007.97
2019-02-19T11:38:49.611Z,1007.84
2019-02-19T11:39:49.873Z,1007.95
2019-02-19T11:40:49.569Z,1008.10
2019-02-19T11:41:49.534Z,1007.86
2019-02-19T11:42:49.515Z,1007.89
2019-02-19T11:43:49.502Z,1008.04
2019-02-19T11:44:49.468Z,1008.01
2019-02-19T11:45:49.774Z,1007.96
2019-02-19T11:46:49.439Z,1007.84
2019-02-19T11:47:49.420Z,1007.80
2019-02-19T11:48:49.397Z,1007.77
2019-02-19T11:49:49.392Z,1007.81
2019-02-19T11:50:49.714Z,1007.85
2019-02-19T11:51:49.659Z,1007.82
2019-02-19T11:52:49.782Z,1007.83
2019-02-19T11:53:49.305Z,1007.83
2019-02-19T11:54:49.315Z,1007.79
2019-02-19T11:55:49.309Z,1007.88
2019-02-19T11:56:49.314Z,1007.83
2019-02-19T11:57:49.530Z,1007.75
2019-02-19T11:58:49.281Z,1007.80
2019-02-19T11:59:49.208Z,1007.96
2019-02-19T12:00:49.223Z,1007.93
2019-02-19T12:01:49.485Z,1007.97
2019-02-19T12:02:49.154Z,1007.83
2019-02-19T12:03:49.452Z,1007.87
2019-02-19T12:04:49.192Z,1007.98
2019-02-19T12:05:49.132Z,1007.89
2019-02-19T12:06:49.062Z,1007.98
2019-02-19T12:07:49.102Z,1007.93
2019-02-19T12:08:49.056Z,1007.86
2019-02-19T12:09:49.307Z,1007.94
2019-02-19T12:10:49.092Z,1007.97
2019-02-19T12:11:48.977Z,1007.84
2019-02-19T12:12:48.944Z,1007.90
2019-02-19T12:13:48.939Z,1007.83
2019-02-19T12:16:50.398Z,1007.81
2019-02-19T12:17:48.872Z,1007.67
2019-02-19T12:18:48.849Z,1007.67
2019-02-19T12:20:48.797Z,1007.59
2019-02-19T12:21:52.277Z,1007.66
2019-02-19T12:24:51.440Z,1007.55
2019-02-19T12:26:49.969Z,1007.57
2019-02-19T12:27:48.833Z,1007.60
2019-02-19T12:28:48.989Z,1007.69
2019-02-19T12:29:48.720Z,1007.68
2019-02-19T12:30:48.604Z,1007.66
2019-02-19T12:31:48.592Z,1007.68
2019-02-19T12:32:48.567Z,1007.72
2019-02-19T12:33:48.570Z,1007.71
2019-02-19T12:34:48.535Z,1007.68
2019-02-19T12:35:48.822Z,1007.69
2019-02-19T12:36:48.791Z,1007.63